sensor_id;sensor_type;location;lat;lon;timestamp;temperature;humidity
6256;DHT22;3161;48.794;9.784;2024-01-15T00:02:00;-2.00;99.90
6256;DHT22;3161;48.794;9.784;2024-01-15T00:04:28;-2.00;99.90
6256;DHT22;3161;48.794;9.784;2024-01-15T00:06:56;-1.90;99.90
6256;DHT22;3161;48.794;9.784;2024-01-15T00:09:23;-1.90;99.90
6256;DHT22;3161;48.794;9.784;2024-01-15T00:11:51;-2.00;99.90
6256;DHT22;3161;48.794;9.784;2024-01-15T00:14:18;-2.00;99.90
6256;DHT22;3161;48.794;9.784;2024-01-15T00:16:47;-2.00;99.90
6256;DHT22;3161;48.794;9.784;2024-01-15T00:19:16;-1.90;99.90
6256;DHT22;3161;48.794;9.784;2024-01-15T00:21:44;-1.90;99.90
6256;DHT22;3161;48.794;9.784;2024-01-15T00:24:12;-1.90;99.90
6256;DHT22;3161;48.794;9.784;2024-01-15T00:26:40;-1.80;99.90
6256;DHT22;3161;48.794;9.784;2024-01-15T00:29:08;-1.80;99.90
6256;DHT22;3161;48.794;9.784;2024-01-15T00:31:36;-1.80;99.90
6256;DHT22;3161;48.794;9.784;2024-01-15T00:34:03;-1.80;99.90
6256;DHT22;3161;48.794;9.784;2024-01-15T00:36:32;-1.80;99.90
6256;DHT22;3161;48.794;9.784;2024-01-15T00:38:59;-1.80;99.90
6256;DHT22;3161;48.794;9.784;2024-01-15T00:41:27;-1.80;99.90
6256;DHT22;3161;48.794;9.784;2024-01-15T00:43:55;-1.80;99.90
6256;DHT22;3161;48.794;9.784;2024-01-15T00:46:22;-1.80;99.90
6256;DHT22;3161;48.794;9.784;2024-01-15T00:48:50;-1.80;99.90
6256;DHT22;3161;48.794;9.784;2024-01-15T00:51:17;-1.80;99.90
6256;DHT22;3161;48.794;9.784;2024-01-15T00:53:45;-1.90;99.90
6256;DHT22;3161;48.794;9.784;2024-01-15T00:56:12;-1.80;99.90
6256;DHT22;3161;48.794;9.784;2024-01-15T00:58:40;-1.80;99.90
6256;DHT22;3161;48.794;9.784;2024-01-15T01:01:08;-1.80;99.90
6256;DHT22;3161;48.794;9.784;2024-01-15T01:03:35;-1.80;99.90
6256;DHT22;3161;48.794;9.784;2024-01-15T01:06:03;-1.80;99.90
6256;DHT22;3161;48.794;9.784;2024-01-15T01:08:30;-1.80;99.90
6256;DHT22;3161;48.794;9.784;2024-01-15T01:10:58;-1.80;99.90
6256;DHT22;3161;48.794;9.784;2024-01-15T01:13:25;-1.80;99.90
6256;DHT22;3161;48.794;9.784;2024-01-15T01:15:53;-1.80;99.90
6256;DHT22;3161;48.794;9.784;2024-01-15T01:18:20;-1.80;99.90
6256;DHT22;3161;48.794;9.784;2024-01-15T01:20:48;-1.80;99.90
6256;DHT22;3161;48.794;9.784;2024-01-15T01:23:15;-1.80;99.90
6256;DHT22;3161;48.794;9.784;2024-01-15T01:25:43;-1.80;99.90
6256;DHT22;3161;48.794;9.784;2024-01-15T01:28:11;-1.80;99.90
6256;DHT22;3161;48.794;9.784;2024-01-15T01:30:39;-1.80;99.90
6256;DHT22;3161;48.794;9.784;2024-01-15T01:33:06;-1.90;99.90
6256;DHT22;3161;48.794;9.784;2024-01-15T01:35:34;-1.80;99.90
6256;DHT22;3161;48.794;9.784;2024-01-15T01:38:01;-1.80;99.90
6256;DHT22;3161;48.794;9.784;2024-01-15T01:40:29;-1.80;99.90
6256;DHT22;3161;48.794;9.784;2024-01-15T01:42:56;-1.90;99.90
6256;DHT22;3161;48.794;9.784;2024-01-15T01:45:24;-1.90;99.90
6256;DHT22;3161;48.794;9.784;2024-01-15T01:47:52;-1.90;99.90
6256;DHT22;3161;48.794;9.784;2024-01-15T01:50:20;-1.90;99.90
6256;DHT22;3161;48.794;9.784;2024-01-15T01:52:48;-1.90;99.90
6256;DHT22;3161;48.794;9.784;2024-01-15T01:55:16;-1.90;99.90
6256;DHT22;3161;48.794;9.784;2024-01-15T01:58:03;-1.90;99.90
6256;DHT22;3161;48.794;9.784;2024-01-15T02:00:31;-1.90;99.90
6256;DHT22;3161;48.794;9.784;2024-01-15T02:03:00;-1.80;99.90
6256;DHT22;3161;48.794;9.784;2024-01-15T02:05:30;-1.80;99.90
6256;DHT22;3161;48.794;9.784;2024-01-15T02:07:58;-1.80;99.90
6256;DHT22;3161;48.794;9.784;2024-01-15T02:10:25;-1.80;99.90
6256;DHT22;3161;48.794;9.784;2024-01-15T02:12:53;-1.70;99.90
6256;DHT22;3161;48.794;9.784;2024-01-15T02:15:21;-1.70;99.90
6256;DHT22;3161;48.794;9.784;2024-01-15T02:18:05;-1.70;99.90
6256;DHT22;3161;48.794;9.784;2024-01-15T02:20:34;-1.70;99.90
6256;DHT22;3161;48.794;9.784;2024-01-15T02:23:12;-1.60;99.90
6256;DHT22;3161;48.794;9.784;2024-01-15T02:25:42;-1.60;99.90
6256;DHT22;3161;48.794;9.784;2024-01-15T02:28:17;-1.50;99.90
6256;DHT22;3161;48.794;9.784;2024-01-15T02:30:42;-1.40;99.90
6256;DHT22;3161;48.794;9.784;2024-01-15T02:33:11;-1.40;99.90
6256;DHT22;3161;48.794;9.784;2024-01-15T02:35:39;-1.30;99.90
6256;DHT22;3161;48.794;9.784;2024-01-15T02:38:07;-1.30;99.90
6256;DHT22;3161;48.794;9.784;2024-01-15T02:40:35;-1.30;99.90
6256;DHT22;3161;48.794;9.784;2024-01-15T02:43:03;-1.30;99.90
6256;DHT22;3161;48.794;9.784;2024-01-15T02:45:31;-1.20;99.90
6256;DHT22;3161;48.794;9.784;2024-01-15T02:47:58;-1.20;99.90
6256;DHT22;3161;48.794;9.784;2024-01-15T02:50:26;-1.20;99.90
6256;DHT22;3161;48.794;9.784;2024-01-15T02:52:53;-1.10;99.90
6256;DHT22;3161;48.794;9.784;2024-01-15T02:55:21;-1.00;99.90
6256;DHT22;3161;48.794;9.784;2024-01-15T02:57:48;-1.00;99.90
6256;DHT22;3161;48.794;9.784;2024-01-15T03:00:16;-0.90;99.90
6256;DHT22;3161;48.794;9.784;2024-01-15T03:02:45;-0.90;99.90
6256;DHT22;3161;48.794;9.784;2024-01-15T03:05:12;-0.90;99.90
6256;DHT22;3161;48.794;9.784;2024-01-15T03:07:40;-0.80;99.90
6256;DHT22;3161;48.794;9.784;2024-01-15T03:10:08;-0.80;99.90
6256;DHT22;3161;48.794;9.784;2024-01-15T03:12:35;-0.70;99.90
6256;DHT22;3161;48.794;9.784;2024-01-15T03:15:03;-0.70;99.90
6256;DHT22;3161;48.794;9.784;2024-01-15T03:17:31;-0.70;99.90
6256;DHT22;3161;48.794;9.784;2024-01-15T03:19:59;-0.70;99.90
6256;DHT22;3161;48.794;9.784;2024-01-15T03:22:26;-0.70;99.90
6256;DHT22;3161;48.794;9.784;2024-01-15T03:24:54;-0.60;99.90
6256;DHT22;3161;48.794;9.784;2024-01-15T03:27:21;-0.50;99.90
6256;DHT22;3161;48.794;9.784;2024-01-15T03:29:49;-0.50;99.90
6256;DHT22;3161;48.794;9.784;2024-01-15T03:32:16;-0.40;99.90
6256;DHT22;3161;48.794;9.784;2024-01-15T03:34:46;-0.40;99.90
6256;DHT22;3161;48.794;9.784;2024-01-15T03:37:14;-0.40;99.90
6256;DHT22;3161;48.794;9.784;2024-01-15T03:39:42;-0.50;99.90
6256;DHT22;3161;48.794;9.784;2024-01-15T03:42:09;-0.40;99.90
6256;DHT22;3161;48.794;9.784;2024-01-15T03:44:37;-0.40;99.90
6256;DHT22;3161;48.794;9.784;2024-01-15T03:47:04;-0.40;99.90
6256;DHT22;3161;48.794;9.784;2024-01-15T03:49:32;-0.30;99.90
6256;DHT22;3161;48.794;9.784;2024-01-15T03:51:59;-0.30;99.90
6256;DHT22;3161;48.794;9.784;2024-01-15T03:54:27;-0.30;99.90
6256;DHT22;3161;48.794;9.784;2024-01-15T03:56:54;-0.30;99.90
6256;DHT22;3161;48.794;9.784;2024-01-15T03:59:22;-0.30;99.90
6256;DHT22;3161;48.794;9.784;2024-01-15T04:01:50;-0.30;99.90
6256;DHT22;3161;48.794;9.784;2024-01-15T04:04:18;-0.30;99.90
6256;DHT22;3161;48.794;9.784;2024-01-15T04:06:45;-0.20;99.90
6256;DHT22;3161;48.794;9.784;2024-01-15T04:09:13;-0.20;99.90
6256;DHT22;3161;48.794;9.784;2024-01-15T04:11:41;-0.20;99.90
6256;DHT22;3161;48.794;9.784;2024-01-15T04:14:09;-0.10;99.90
6256;DHT22;3161;48.794;9.784;2024-01-15T04:16:37;-0.10;99.90
6256;DHT22;3161;48.794;9.784;2024-01-15T04:19:05;0.00;99.90
6256;DHT22;3161;48.794;9.784;2024-01-15T04:21:32;0.00;99.90
6256;DHT22;3161;48.794;9.784;2024-01-15T04:24:00;0.00;99.90
6256;DHT22;3161;48.794;9.784;2024-01-15T04:26:27;0.00;99.90
6256;DHT22;3161;48.794;9.784;2024-01-15T04:28:55;0.00;99.90
6256;DHT22;3161;48.794;9.784;2024-01-15T04:31:23;0.00;99.90
6256;DHT22;3161;48.794;9.784;2024-01-15T04:33:51;0.00;99.90
6256;DHT22;3161;48.794;9.784;2024-01-15T04:36:19;0.00;99.90
6256;DHT22;3161;48.794;9.784;2024-01-15T04:38:46;0.00;99.90
6256;DHT22;3161;48.794;9.784;2024-01-15T04:41:14;0.00;99.90
6256;DHT22;3161;48.794;9.784;2024-01-15T04:43:43;0.00;99.90
6256;DHT22;3161;48.794;9.784;2024-01-15T04:46:10;0.10;99.90
6256;DHT22;3161;48.794;9.784;2024-01-15T04:48:38;0.00;99.90
6256;DHT22;3161;48.794;9.784;2024-01-15T04:51:08;0.10;99.90
6256;DHT22;3161;48.794;9.784;2024-01-15T04:53:35;0.00;99.90
6256;DHT22;3161;48.794;9.784;2024-01-15T04:56:03;0.00;99.90
6256;DHT22;3161;48.794;9.784;2024-01-15T04:58:30;0.10;99.90
6256;DHT22;3161;48.794;9.784;2024-01-15T05:00:58;0.00;99.90
6256;DHT22;3161;48.794;9.784;2024-01-15T05:03:25;0.00;99.90
6256;DHT22;3161;48.794;9.784;2024-01-15T05:05:53;0.00;99.90
6256;DHT22;3161;48.794;9.784;2024-01-15T05:08:20;0.10;99.90
6256;DHT22;3161;48.794;9.784;2024-01-15T05:10:48;0.10;99.90
6256;DHT22;3161;48.794;9.784;2024-01-15T05:13:16;0.10;99.90
6256;DHT22;3161;48.794;9.784;2024-01-15T05:15:43;0.20;99.90
6256;DHT22;3161;48.794;9.784;2024-01-15T05:18:11;0.20;99.90
6256;DHT22;3161;48.794;9.784;2024-01-15T05:20:38;0.20;99.90
6256;DHT22;3161;48.794;9.784;2024-01-15T05:23:06;0.20;99.90
6256;DHT22;3161;48.794;9.784;2024-01-15T05:25:33;0.20;99.90
6256;DHT22;3161;48.794;9.784;2024-01-15T05:28:01;0.20;99.90
6256;DHT22;3161;48.794;9.784;2024-01-15T05:30:29;0.20;99.90
6256;DHT22;3161;48.794;9.784;2024-01-15T05:32:56;0.20;99.90
6256;DHT22;3161;48.794;9.784;2024-01-15T05:35:27;0.20;99.90
6256;DHT22;3161;48.794;9.784;2024-01-15T05:37:55;0.20;99.90
6256;DHT22;3161;48.794;9.784;2024-01-15T05:40:22;0.30;99.90
6256;DHT22;3161;48.794;9.784;2024-01-15T05:42:50;0.30;99.90
6256;DHT22;3161;48.794;9.784;2024-01-15T05:45:17;0.30;99.90
6256;DHT22;3161;48.794;9.784;2024-01-15T05:47:45;0.30;99.90
6256;DHT22;3161;48.794;9.784;2024-01-15T05:50:12;0.30;99.90
6256;DHT22;3161;48.794;9.784;2024-01-15T05:52:40;0.20;99.90
6256;DHT22;3161;48.794;9.784;2024-01-15T05:55:08;0.20;99.90
6256;DHT22;3161;48.794;9.784;2024-01-15T05:57:37;0.20;99.90
6256;DHT22;3161;48.794;9.784;2024-01-15T06:00:05;0.20;99.90
6256;DHT22;3161;48.794;9.784;2024-01-15T06:02:35;0.20;99.90
6256;DHT22;3161;48.794;9.784;2024-01-15T06:05:02;0.20;99.90
6256;DHT22;3161;48.794;9.784;2024-01-15T06:07:30;0.30;99.90
6256;DHT22;3161;48.794;9.784;2024-01-15T06:09:57;0.40;99.90
6256;DHT22;3161;48.794;9.784;2024-01-15T06:12:25;0.30;99.90
6256;DHT22;3161;48.794;9.784;2024-01-15T06:14:54;0.30;99.90
6256;DHT22;3161;48.794;9.784;2024-01-15T06:17:22;0.30;99.90
6256;DHT22;3161;48.794;9.784;2024-01-15T06:19:49;0.20;99.90
6256;DHT22;3161;48.794;9.784;2024-01-15T06:22:17;0.20;99.90
6256;DHT22;3161;48.794;9.784;2024-01-15T06:24:45;0.20;99.90
6256;DHT22;3161;48.794;9.784;2024-01-15T06:27:12;0.20;99.90
6256;DHT22;3161;48.794;9.784;2024-01-15T06:29:44;0.30;99.90
6256;DHT22;3161;48.794;9.784;2024-01-15T06:32:10;0.30;99.90
6256;DHT22;3161;48.794;9.784;2024-01-15T06:34:38;0.30;99.90
6256;DHT22;3161;48.794;9.784;2024-01-15T06:37:06;0.20;99.90
6256;DHT22;3161;48.794;9.784;2024-01-15T06:39:33;0.30;99.90
6256;DHT22;3161;48.794;9.784;2024-01-15T06:42:01;0.30;99.90
6256;DHT22;3161;48.794;9.784;2024-01-15T06:44:28;0.30;99.90
6256;DHT22;3161;48.794;9.784;2024-01-15T06:46:56;0.30;99.90
6256;DHT22;3161;48.794;9.784;2024-01-15T06:49:32;0.30;99.90
6256;DHT22;3161;48.794;9.784;2024-01-15T06:52:00;0.30;99.90
6256;DHT22;3161;48.794;9.784;2024-01-15T06:54:27;0.30;99.90
6256;DHT22;3161;48.794;9.784;2024-01-15T06:56:55;0.30;99.90
6256;DHT22;3161;48.794;9.784;2024-01-15T06:59:22;0.30;99.90
6256;DHT22;3161;48.794;9.784;2024-01-15T07:01:50;0.30;99.90
6256;DHT22;3161;48.794;9.784;2024-01-15T07:04:17;0.20;99.90
6256;DHT22;3161;48.794;9.784;2024-01-15T07:06:45;0.30;99.90
6256;DHT22;3161;48.794;9.784;2024-01-15T07:09:14;0.30;99.90
6256;DHT22;3161;48.794;9.784;2024-01-15T07:11:46;0.30;99.90
6256;DHT22;3161;48.794;9.784;2024-01-15T07:14:14;0.40;99.90
6256;DHT22;3161;48.794;9.784;2024-01-15T07:16:41;0.40;99.90
6256;DHT22;3161;48.794;9.784;2024-01-15T07:19:09;0.40;99.90
6256;DHT22;3161;48.794;9.784;2024-01-15T07:21:36;0.40;99.90
6256;DHT22;3161;48.794;9.784;2024-01-15T07:24:05;0.50;99.90
6256;DHT22;3161;48.794;9.784;2024-01-15T07:26:33;0.50;99.90
6256;DHT22;3161;48.794;9.784;2024-01-15T07:29:01;0.60;99.90
6256;DHT22;3161;48.794;9.784;2024-01-15T07:31:29;0.60;99.90
6256;DHT22;3161;48.794;9.784;2024-01-15T07:33:57;0.60;99.90
6256;DHT22;3161;48.794;9.784;2024-01-15T07:36:24;0.60;99.90
6256;DHT22;3161;48.794;9.784;2024-01-15T07:38:52;0.60;99.90
6256;DHT22;3161;48.794;9.784;2024-01-15T07:41:20;0.60;99.90
6256;DHT22;3161;48.794;9.784;2024-01-15T07:43:47;0.70;99.90
6256;DHT22;3161;48.794;9.784;2024-01-15T07:46:15;0.70;99.90
6256;DHT22;3161;48.794;9.784;2024-01-15T07:48:42;0.70;99.90
6256;DHT22;3161;48.794;9.784;2024-01-15T07:51:10;0.70;99.90
6256;DHT22;3161;48.794;9.784;2024-01-15T07:53:37;0.70;99.90
6256;DHT22;3161;48.794;9.784;2024-01-15T07:56:05;0.70;99.90
6256;DHT22;3161;48.794;9.784;2024-01-15T07:58:32;0.80;99.90
6256;DHT22;3161;48.794;9.784;2024-01-15T08:01:00;0.80;99.90
6256;DHT22;3161;48.794;9.784;2024-01-15T08:03:28;0.80;99.90
6256;DHT22;3161;48.794;9.784;2024-01-15T08:05:56;0.80;99.90
6256;DHT22;3161;48.794;9.784;2024-01-15T08:08:26;0.80;99.90
6256;DHT22;3161;48.794;9.784;2024-01-15T08:10:53;0.80;99.90
6256;DHT22;3161;48.794;9.784;2024-01-15T08:13:21;0.90;99.90
6256;DHT22;3161;48.794;9.784;2024-01-15T08:15:49;0.90;99.90
6256;DHT22;3161;48.794;9.784;2024-01-15T08:18:16;0.90;99.90
6256;DHT22;3161;48.794;9.784;2024-01-15T08:20:44;0.90;99.90
6256;DHT22;3161;48.794;9.784;2024-01-15T08:23:11;0.90;99.90
6256;DHT22;3161;48.794;9.784;2024-01-15T08:25:39;1.00;99.90
6256;DHT22;3161;48.794;9.784;2024-01-15T08:28:06;1.00;99.90
6256;DHT22;3161;48.794;9.784;2024-01-15T08:30:35;1.00;99.90
6256;DHT22;3161;48.794;9.784;2024-01-15T08:33:02;1.00;99.90
6256;DHT22;3161;48.794;9.784;2024-01-15T08:35:30;1.00;99.90
6256;DHT22;3161;48.794;9.784;2024-01-15T08:37:57;1.10;99.90
6256;DHT22;3161;48.794;9.784;2024-01-15T08:40:25;1.10;99.90
6256;DHT22;3161;48.794;9.784;2024-01-15T08:42:52;1.10;99.90
6256;DHT22;3161;48.794;9.784;2024-01-15T08:45:20;1.10;99.90
6256;DHT22;3161;48.794;9.784;2024-01-15T08:47:48;1.10;99.90
6256;DHT22;3161;48.794;9.784;2024-01-15T08:50:15;1.10;99.90
6256;DHT22;3161;48.794;9.784;2024-01-15T08:52:43;1.10;99.90
6256;DHT22;3161;48.794;9.784;2024-01-15T08:55:10;1.20;99.90
6256;DHT22;3161;48.794;9.784;2024-01-15T08:57:39;1.30;99.90
6256;DHT22;3161;48.794;9.784;2024-01-15T09:00:07;1.30;99.90
6256;DHT22;3161;48.794;9.784;2024-01-15T09:02:35;1.40;99.90
6256;DHT22;3161;48.794;9.784;2024-01-15T09:05:04;1.40;99.90
6256;DHT22;3161;48.794;9.784;2024-01-15T09:07:32;1.40;99.90
6256;DHT22;3161;48.794;9.784;2024-01-15T09:09:59;1.50;99.90
6256;DHT22;3161;48.794;9.784;2024-01-15T09:12:28;1.50;99.90
6256;DHT22;3161;48.794;9.784;2024-01-15T09:14:55;1.50;99.90
6256;DHT22;3161;48.794;9.784;2024-01-15T09:17:23;1.50;99.90
6256;DHT22;3161;48.794;9.784;2024-01-15T09:19:51;1.60;99.90
6256;DHT22;3161;48.794;9.784;2024-01-15T09:22:18;1.60;99.90
6256;DHT22;3161;48.794;9.784;2024-01-15T09:24:46;1.50;99.90
6256;DHT22;3161;48.794;9.784;2024-01-15T09:27:14;1.50;99.90
6256;DHT22;3161;48.794;9.784;2024-01-15T09:29:42;1.50;99.90
6256;DHT22;3161;48.794;9.784;2024-01-15T09:32:11;1.60;99.90
6256;DHT22;3161;48.794;9.784;2024-01-15T09:34:39;1.60;99.90
6256;DHT22;3161;48.794;9.784;2024-01-15T09:37:07;1.60;99.90
6256;DHT22;3161;48.794;9.784;2024-01-15T09:39:36;1.60;99.90
6256;DHT22;3161;48.794;9.784;2024-01-15T09:42:04;1.60;99.90
6256;DHT22;3161;48.794;9.784;2024-01-15T09:44:32;1.60;99.90
6256;DHT22;3161;48.794;9.784;2024-01-15T09:47:00;1.70;99.90
6256;DHT22;3161;48.794;9.784;2024-01-15T09:49:28;1.70;99.90
6256;DHT22;3161;48.794;9.784;2024-01-15T09:51:58;1.80;99.90
6256;DHT22;3161;48.794;9.784;2024-01-15T09:54:27;1.80;99.90
6256;DHT22;3161;48.794;9.784;2024-01-15T09:57:00;2.20;99.90
6256;DHT22;3161;48.794;9.784;2024-01-15T09:59:28;1.90;99.90
6256;DHT22;3161;48.794;9.784;2024-01-15T10:01:57;1.90;99.90
6256;DHT22;3161;48.794;9.784;2024-01-15T10:04:26;1.90;99.90
6256;DHT22;3161;48.794;9.784;2024-01-15T10:06:54;1.90;99.90
6256;DHT22;3161;48.794;9.784;2024-01-15T10:09:23;1.90;99.90
6256;DHT22;3161;48.794;9.784;2024-01-15T10:11:51;2.00;99.90
6256;DHT22;3161;48.794;9.784;2024-01-15T10:14:19;2.00;99.90
6256;DHT22;3161;48.794;9.784;2024-01-15T10:16:46;2.10;99.90
6256;DHT22;3161;48.794;9.784;2024-01-15T10:19:14;2.10;99.90
6256;DHT22;3161;48.794;9.784;2024-01-15T10:21:41;2.10;99.90
6256;DHT22;3161;48.794;9.784;2024-01-15T10:24:09;2.20;99.90
6256;DHT22;3161;48.794;9.784;2024-01-15T10:26:36;2.10;99.90
6256;DHT22;3161;48.794;9.784;2024-01-15T10:29:04;2.20;99.90
6256;DHT22;3161;48.794;9.784;2024-01-15T10:31:33;2.20;99.90
6256;DHT22;3161;48.794;9.784;2024-01-15T10:34:13;2.10;99.90
6256;DHT22;3161;48.794;9.784;2024-01-15T10:36:42;2.20;99.90
6256;DHT22;3161;48.794;9.784;2024-01-15T10:39:13;2.10;99.90
6256;DHT22;3161;48.794;9.784;2024-01-15T10:41:40;2.20;99.90
6256;DHT22;3161;48.794;9.784;2024-01-15T10:44:07;2.20;99.90
6256;DHT22;3161;48.794;9.784;2024-01-15T10:46:35;2.30;99.90
6256;DHT22;3161;48.794;9.784;2024-01-15T10:49:03;2.30;99.90
6256;DHT22;3161;48.794;9.784;2024-01-15T10:51:31;2.30;99.90
6256;DHT22;3161;48.794;9.784;2024-01-15T10:54:00;2.30;99.90
6256;DHT22;3161;48.794;9.784;2024-01-15T10:56:28;2.30;99.90
6256;DHT22;3161;48.794;9.784;2024-01-15T10:58:57;2.40;99.90
6256;DHT22;3161;48.794;9.784;2024-01-15T11:01:25;2.40;99.90
6256;DHT22;3161;48.794;9.784;2024-01-15T11:03:54;2.50;99.90
6256;DHT22;3161;48.794;9.784;2024-01-15T11:06:24;2.50;99.90
6256;DHT22;3161;48.794;9.784;2024-01-15T11:08:53;2.50;99.90
6256;DHT22;3161;48.794;9.784;2024-01-15T11:11:21;2.50;99.90
6256;DHT22;3161;48.794;9.784;2024-01-15T11:13:50;2.50;99.90
6256;DHT22;3161;48.794;9.784;2024-01-15T11:16:19;2.50;99.90
6256;DHT22;3161;48.794;9.784;2024-01-15T11:21:29;2.40;99.90
6256;DHT22;3161;48.794;9.784;2024-01-15T11:24:02;2.40;99.90
6256;DHT22;3161;48.794;9.784;2024-01-15T11:29:08;2.50;99.90
6256;DHT22;3161;48.794;9.784;2024-01-15T11:34:15;2.50;99.90
6256;DHT22;3161;48.794;9.784;2024-01-15T11:42:01;2.50;99.90
6256;DHT22;3161;48.794;9.784;2024-01-15T11:44:32;2.50;99.90
6256;DHT22;3161;48.794;9.784;2024-01-15T11:47:01;2.40;99.90
6256;DHT22;3161;48.794;9.784;2024-01-15T11:52:18;2.20;99.90
6256;DHT22;3161;48.794;9.784;2024-01-15T11:57:45;2.20;99.90
6256;DHT22;3161;48.794;9.784;2024-01-15T12:00:12;2.10;99.90
6256;DHT22;3161;48.794;9.784;2024-01-15T12:02:43;2.10;99.90
6256;DHT22;3161;48.794;9.784;2024-01-15T12:05:12;2.00;99.90
6256;DHT22;3161;48.794;9.784;2024-01-15T12:07:41;2.00;99.90
6256;DHT22;3161;48.794;9.784;2024-01-15T12:10:19;3.80;99.90
6256;DHT22;3161;48.794;9.784;2024-01-15T12:13:03;1.90;99.90
6256;DHT22;3161;48.794;9.784;2024-01-15T12:15:30;2.00;99.90
6256;DHT22;3161;48.794;9.784;2024-01-15T12:17:59;1.90;99.90
6256;DHT22;3161;48.794;9.784;2024-01-15T12:20:32;2.00;99.90
6256;DHT22;3161;48.794;9.784;2024-01-15T12:23:01;2.00;99.90
6256;DHT22;3161;48.794;9.784;2024-01-15T12:25:32;2.00;99.90
6256;DHT22;3161;48.794;9.784;2024-01-15T12:28:00;1.90;99.90
6256;DHT22;3161;48.794;9.784;2024-01-15T12:30:29;2.00;99.90
6256;DHT22;3161;48.794;9.784;2024-01-15T12:33:04;1.90;99.90
6256;DHT22;3161;48.794;9.784;2024-01-15T12:35:34;2.00;99.90
6256;DHT22;3161;48.794;9.784;2024-01-15T12:38:02;2.00;99.90
6256;DHT22;3161;48.794;9.784;2024-01-15T12:40:31;2.00;99.90
6256;DHT22;3161;48.794;9.784;2024-01-15T12:43:00;2.00;99.90
6256;DHT22;3161;48.794;9.784;2024-01-15T12:45:28;2.00;99.90
6256;DHT22;3161;48.794;9.784;2024-01-15T12:47:57;2.00;99.90
6256;DHT22;3161;48.794;9.784;2024-01-15T12:50:25;2.00;99.90
6256;DHT22;3161;48.794;9.784;2024-01-15T12:52:53;2.00;99.90
6256;DHT22;3161;48.794;9.784;2024-01-15T12:55:20;2.00;99.90
6256;DHT22;3161;48.794;9.784;2024-01-15T12:57:47;2.00;99.90
6256;DHT22;3161;48.794;9.784;2024-01-15T13:00:16;2.00;99.90
6256;DHT22;3161;48.794;9.784;2024-01-15T13:02:44;2.00;99.90
6256;DHT22;3161;48.794;9.784;2024-01-15T13:05:12;2.00;99.90
6256;DHT22;3161;48.794;9.784;2024-01-15T13:07:40;2.00;99.90
6256;DHT22;3161;48.794;9.784;2024-01-15T13:10:08;2.00;99.90
6256;DHT22;3161;48.794;9.784;2024-01-15T13:12:36;1.90;99.90
6256;DHT22;3161;48.794;9.784;2024-01-15T13:15:04;1.90;99.90
6256;DHT22;3161;48.794;9.784;2024-01-15T13:17:33;1.70;99.90
6256;DHT22;3161;48.794;9.784;2024-01-15T13:20:01;1.70;99.90
6256;DHT22;3161;48.794;9.784;2024-01-15T13:22:29;1.60;99.90
6256;DHT22;3161;48.794;9.784;2024-01-15T13:24:58;1.50;99.90
6256;DHT22;3161;48.794;9.784;2024-01-15T13:27:26;1.60;99.90
6256;DHT22;3161;48.794;9.784;2024-01-15T13:29:54;1.60;99.90
6256;DHT22;3161;48.794;9.784;2024-01-15T13:32:24;1.60;99.90
6256;DHT22;3161;48.794;9.784;2024-01-15T13:34:52;1.50;99.90
6256;DHT22;3161;48.794;9.784;2024-01-15T13:37:20;1.60;99.90
6256;DHT22;3161;48.794;9.784;2024-01-15T13:39:47;1.60;99.90
6256;DHT22;3161;48.794;9.784;2024-01-15T13:42:15;1.60;99.90
6256;DHT22;3161;48.794;9.784;2024-01-15T13:44:42;1.60;99.90
6256;DHT22;3161;48.794;9.784;2024-01-15T13:47:10;1.50;99.90
6256;DHT22;3161;48.794;9.784;2024-01-15T13:49:37;1.50;99.90
6256;DHT22;3161;48.794;9.784;2024-01-15T13:52:05;1.50;99.90
6256;DHT22;3161;48.794;9.784;2024-01-15T13:54:33;1.60;99.90
6256;DHT22;3161;48.794;9.784;2024-01-15T13:57:00;1.60;99.90
6256;DHT22;3161;48.794;9.784;2024-01-15T13:59:28;1.60;99.90
6256;DHT22;3161;48.794;9.784;2024-01-15T14:01:55;1.60;99.90
6256;DHT22;3161;48.794;9.784;2024-01-15T14:04:24;1.60;99.90
6256;DHT22;3161;48.794;9.784;2024-01-15T14:06:51;1.60;99.90
6256;DHT22;3161;48.794;9.784;2024-01-15T14:09:19;1.70;99.90
6256;DHT22;3161;48.794;9.784;2024-01-15T14:11:48;1.80;99.90
6256;DHT22;3161;48.794;9.784;2024-01-15T14:14:16;1.80;99.90
6256;DHT22;3161;48.794;9.784;2024-01-15T14:16:43;1.80;99.90
6256;DHT22;3161;48.794;9.784;2024-01-15T14:19:11;1.60;99.90
6256;DHT22;3161;48.794;9.784;2024-01-15T14:21:39;1.70;99.90
6256;DHT22;3161;48.794;9.784;2024-01-15T14:24:07;1.60;99.90
6256;DHT22;3161;48.794;9.784;2024-01-15T14:26:35;1.60;99.90
6256;DHT22;3161;48.794;9.784;2024-01-15T14:29:03;1.60;99.90
6256;DHT22;3161;48.794;9.784;2024-01-15T14:31:32;1.60;99.90
6256;DHT22;3161;48.794;9.784;2024-01-15T14:34:00;1.60;99.90
6256;DHT22;3161;48.794;9.784;2024-01-15T14:36:29;1.60;99.90
6256;DHT22;3161;48.794;9.784;2024-01-15T14:38:57;1.60;99.90
6256;DHT22;3161;48.794;9.784;2024-01-15T14:41:24;1.60;99.90
6256;DHT22;3161;48.794;9.784;2024-01-15T14:43:52;1.60;99.90
6256;DHT22;3161;48.794;9.784;2024-01-15T14:46:20;1.50;99.90
6256;DHT22;3161;48.794;9.784;2024-01-15T14:48:48;1.40;99.90
6256;DHT22;3161;48.794;9.784;2024-01-15T14:51:15;1.40;99.90
6256;DHT22;3161;48.794;9.784;2024-01-15T14:53:43;1.50;99.90
6256;DHT22;3161;48.794;9.784;2024-01-15T14:56:11;1.50;99.90
6256;DHT22;3161;48.794;9.784;2024-01-15T14:58:38;1.50;99.90
6256;DHT22;3161;48.794;9.784;2024-01-15T15:01:06;1.40;99.90
6256;DHT22;3161;48.794;9.784;2024-01-15T15:03:34;1.40;99.90
6256;DHT22;3161;48.794;9.784;2024-01-15T15:06:01;1.40;99.90
6256;DHT22;3161;48.794;9.784;2024-01-15T15:08:29;1.40;99.90
6256;DHT22;3161;48.794;9.784;2024-01-15T15:10:56;1.40;99.90
6256;DHT22;3161;48.794;9.784;2024-01-15T15:13:24;1.40;99.90
6256;DHT22;3161;48.794;9.784;2024-01-15T15:15:53;1.30;99.90
6256;DHT22;3161;48.794;9.784;2024-01-15T15:18:21;1.40;99.90
6256;DHT22;3161;48.794;9.784;2024-01-15T15:20:49;1.40;99.90
6256;DHT22;3161;48.794;9.784;2024-01-15T15:23:18;1.40;99.90
6256;DHT22;3161;48.794;9.784;2024-01-15T15:25:46;1.30;99.90
6256;DHT22;3161;48.794;9.784;2024-01-15T15:28:13;1.30;99.90
6256;DHT22;3161;48.794;9.784;2024-01-15T15:30:42;1.30;99.90
6256;DHT22;3161;48.794;9.784;2024-01-15T15:33:11;1.30;99.90
6256;DHT22;3161;48.794;9.784;2024-01-15T15:35:39;1.20;99.90
6256;DHT22;3161;48.794;9.784;2024-01-15T15:38:07;1.20;99.90
6256;DHT22;3161;48.794;9.784;2024-01-15T15:40:34;1.20;99.90
6256;DHT22;3161;48.794;9.784;2024-01-15T15:43:02;1.10;99.90
6256;DHT22;3161;48.794;9.784;2024-01-15T15:45:29;1.10;99.90
6256;DHT22;3161;48.794;9.784;2024-01-15T15:47:58;1.00;99.90
6256;DHT22;3161;48.794;9.784;2024-01-15T15:50:25;1.10;99.90
6256;DHT22;3161;48.794;9.784;2024-01-15T15:52:53;1.10;99.90
6256;DHT22;3161;48.794;9.784;2024-01-15T15:55:22;1.10;99.90
6256;DHT22;3161;48.794;9.784;2024-01-15T15:57:50;1.10;99.90
6256;DHT22;3161;48.794;9.784;2024-01-15T16:00:17;1.10;99.90
6256;DHT22;3161;48.794;9.784;2024-01-15T16:02:45;1.00;99.90
6256;DHT22;3161;48.794;9.784;2024-01-15T16:05:13;1.10;99.90
6256;DHT22;3161;48.794;9.784;2024-01-15T16:07:40;1.10;99.90
6256;DHT22;3161;48.794;9.784;2024-01-15T16:10:08;1.00;99.90
6256;DHT22;3161;48.794;9.784;2024-01-15T16:12:36;1.00;99.90
6256;DHT22;3161;48.794;9.784;2024-01-15T16:15:18;1.00;99.90
6256;DHT22;3161;48.794;9.784;2024-01-15T16:17:47;1.00;99.90
6256;DHT22;3161;48.794;9.784;2024-01-15T16:20:16;1.00;99.90
6256;DHT22;3161;48.794;9.784;2024-01-15T16:22:44;1.00;99.90
6256;DHT22;3161;48.794;9.784;2024-01-15T16:25:12;1.00;99.90
6256;DHT22;3161;48.794;9.784;2024-01-15T16:27:40;0.90;99.90
6256;DHT22;3161;48.794;9.784;2024-01-15T16:30:09;0.90;99.90
6256;DHT22;3161;48.794;9.784;2024-01-15T16:32:37;0.90;99.90
6256;DHT22;3161;48.794;9.784;2024-01-15T16:35:05;1.00;99.90
6256;DHT22;3161;48.794;9.784;2024-01-15T16:37:33;1.00;99.90
6256;DHT22;3161;48.794;9.784;2024-01-15T16:40:03;1.00;99.90